Time;durP1;ratioP1;P1;durP2;ratioP2;P2;SDS_P1;SDS_P2;PMS_P1;PMS_P2;Temp;Humidity;BMP_temperature;BMP_pressure;BME280_temperature;BME280_humidity;BME280_pressure;Samples;Min_cycle;Max_cycle;Signal;HPM_P1;HPM_P2
2022/02/11 00:08:16;;;;;;;3.10;2.73;;;9.40;99.90;;;;;;6293011;22;20210;-95
2022/02/11 00:10:47;;;;;;;3.23;2.93;;;9.30;99.90;;;;;;6266073;22;20214;-94
2022/02/11 00:13:18;;;;;;;3.07;2.70;;;9.40;99.90;;;;;;6297056;22;20189;-94
2022/02/11 00:15:54;;;;;;;3.10;2.53;;;9.40;99.90;;;;;;6297035;22;20220;-95
2022/02/11 00:18:26;;;;;;;2.90;2.47;;;9.30;99.90;;;;;;6296851;22;20201;-92
2022/02/11 00:21:04;;;;;;;3.83;2.80;;;9.20;99.90;;;;;;6296240;22;20167;-92
2022/02/11 00:23:38;;;;;;;3.10;2.80;;;9.10;99.90;;;;;;6296413;22;20329;-93
2022/02/11 00:26:09;;;;;;;3.27;2.40;;;9.10;99.90;;;;;;6296496;22;20178;-93
2022/02/11 00:34:09;;;;;;;2.50;2.30;;;8.80;99.90;;;;;;6315907;22;20166;-93
2022/02/11 00:36:48;;;;;;;3.13;2.40;;;8.80;99.90;;;;;;6321358;22;20195;-94
2022/02/11 00:39:46;;;;;;;2.80;2.30;;;8.80;99.90;;;;;;6324939;22;20178;-93
2022/02/11 01:13:12;;;;;;;4.33;3.10;;;8.50;99.90;;;;;;6292553;22;20798;-94
2022/02/11 01:15:51;;;;;;;3.63;3.27;;;8.40;99.90;;;;;;6330105;22;20491;-94
2022/02/11 01:18:22;;;;;;;3.80;3.40;;;8.40;99.90;;;;;;6324461;22;20185;-94
2022/02/11 01:20:59;;;;;;;3.97;3.40;;;8.30;99.90;;;;;;6323492;22;20163;-94
2022/02/11 01:23:46;;;;;;;4.50;4.10;;;8.30;99.90;;;;;;6328290;22;20177;-95
2022/02/11 01:26:31;;;;;;;3.87;3.57;;;8.30;99.90;;;;;;6327708;22;20227;-95
2022/02/11 01:32:00;;;;;;;4.00;3.70;;;8.30;99.90;;;;;;6327255;22;20181;-92
2022/02/11 01:34:51;;;;;;;4.77;4.20;;;8.30;99.90;;;;;;6329913;22;20178;-94
2022/02/11 01:37:31;;;;;;;5.10;4.60;;;8.20;99.90;;;;;;6329808;22;20169;-93
2022/02/11 01:40:37;;;;;;;4.27;3.87;;;8.20;99.90;;;;;;6331038;22;20179;-93
2022/02/11 01:43:53;;;;;;;4.23;3.80;;;8.20;99.90;;;;;;6303568;22;20181;-93
2022/02/11 01:52:22;;;;;;;5.20;4.67;;;8.10;99.90;;;;;;6305060;22;20620;-95
2022/02/11 01:55:06;;;;;;;5.17;4.67;;;8.10;99.90;;;;;;6324390;22;20163;-93
2022/02/11 01:58:09;;;;;;;6.03;5.50;;;8.10;99.90;;;;;;6328280;22;20181;-93
2022/02/11 02:01:01;;;;;;;6.37;5.20;;;8.10;99.90;;;;;;6328188;22;20186;-94
2022/02/11 02:04:29;;;;;;;6.60;5.40;;;8.00;99.90;;;;;;6330841;22;20179;-93
2022/02/11 02:13:08;;;;;;;6.73;6.13;;;8.00;99.90;;;;;;6335088;22;20242;-94
2022/02/11 02:24:40;;;;;;;6.90;6.23;;;8.00;99.90;;;;;;6334383;22;20166;-93
2022/02/11 02:58:14;;;;;;;6.67;5.60;;;7.80;99.90;;;;;;6329274;22;20208;-94
2022/02/11 03:01:30;;;;;;;6.00;5.40;;;7.70;99.90;;;;;;6331619;22;20177;-93
2022/02/11 03:35:23;;;;;;;7.83;7.03;;;7.70;99.90;;;;;;6329902;22;20181;-94
2022/02/11 03:49:16;;;;;;;6.87;6.27;;;7.60;99.90;;;;;;6327146;22;20211;-93
2022/02/11 03:55:13;;;;;;;6.47;5.60;;;7.60;99.90;;;;;;6323239;22;20179;-93
2022/02/11 03:57:55;;;;;;;7.47;6.77;;;7.60;99.90;;;;;;6328646;22;20174;-92
2022/02/11 04:59:46;;;;;;;7.57;6.80;;;7.50;99.90;;;;;;6355451;22;20162;-94
2022/02/11 05:02:25;;;;;;;8.40;6.70;;;7.50;99.90;;;;;;6358964;22;20185;-94
2022/02/11 05:04:57;;;;;;;7.30;6.57;;;7.50;99.90;;;;;;6359338;22;20227;-93
2022/02/11 05:07:29;;;;;;;7.83;6.70;;;7.40;99.90;;;;;;6356193;22;20169;-94
2022/02/11 05:10:01;;;;;;;7.13;6.43;;;7.50;99.90;;;;;;6359527;22;20201;-93
2022/02/11 05:12:32;;;;;;;7.50;6.57;;;7.50;99.90;;;;;;6360016;22;20272;-93
2022/02/11 05:15:09;;;;;;;7.03;6.33;;;7.40;99.90;;;;;;6360972;22;20179;-94
2022/02/11 05:17:43;;;;;;;7.03;6.33;;;7.40;99.90;;;;;;6364786;22;20196;-93
2022/02/11 05:20:21;;;;;;;7.90;7.10;;;7.40;99.90;;;;;;6358960;22;20177;-94
2022/02/11 05:22:52;;;;;;;7.13;6.43;;;7.40;99.90;;;;;;6358964;22;20173;-93
2022/02/11 05:25:24;;;;;;;8.97;6.70;;;7.40;99.90;;;;;;6359871;22;20181;-93
2022/02/11 05:27:59;;;;;;;7.30;6.60;;;7.40;99.90;;;;;;6362402;22;20175;-93
2022/02/11 05:30:36;;;;;;;8.27;7.37;;;7.40;99.90;;;;;;6363411;22;20207;-94
2022/02/11 05:33:09;;;;;;;9.63;8.00;;;7.40;99.90;;;;;;6359282;22;20180;-92
2022/02/11 05:35:39;;;;;;;9.23;8.27;;;7.30;99.90;;;;;;6351038;22;20166;-93
2022/02/11 05:38:13;;;;;;;9.50;8.60;;;7.30;99.90;;;;;;6347513;22;20172;-93
2022/02/11 05:40:49;;;;;;;9.50;8.27;;;7.30;99.90;;;;;;6357810;22;20173;-93
2022/02/11 05:45:59;;;;;;;9.53;8.53;;;7.30;99.90;;;;;;6360287;22;20193;-94
2022/02/11 05:48:31;;;;;;;9.50;8.60;;;7.30;99.90;;;;;;6355094;22;20276;-92
2022/02/11 05:51:02;;;;;;;8.23;7.43;;;7.30;99.90;;;;;;6346024;22;20512;-94
2022/02/11 05:53:34;;;;;;;7.10;6.40;;;7.30;99.90;;;;;;6354321;22;20166;-94
2022/02/11 05:56:05;;;;;;;7.50;6.80;;;7.30;99.90;;;;;;6338142;22;20162;-94
2022/02/11 05:58:43;;;;;;;8.27;7.33;;;7.20;99.90;;;;;;6344384;22;20226;-86
2022/02/11 06:01:28;;;;;;;8.20;7.40;;;7.20;99.90;;;;;;6300935;22;20201;-92
2022/02/11 06:03:59;;;;;;;8.17;7.37;;;7.20;99.90;;;;;;6284422;22;20181;-94
2022/02/11 06:06:30;;;;;;;8.27;7.40;;;7.20;99.90;;;;;;6287054;22;20175;-95
2022/02/11 06:09:02;;;;;;;8.30;7.50;;;7.20;99.90;;;;;;6283867;22;20195;-93
2022/02/11 06:11:33;;;;;;;8.87;7.97;;;7.20;99.90;;;;;;6281457;22;20237;-93
2022/02/11 06:14:06;;;;;;;9.20;8.27;;;7.20;99.90;;;;;;6282524;22;20163;-94
2022/02/11 06:16:40;;;;;;;9.00;7.57;;;7.20;99.90;;;;;;6281463;22;20167;-94
2022/02/11 06:19:11;;;;;;;7.27;6.50;;;7.30;99.90;;;;;;6282966;22;20625;-94
2022/02/11 06:21:44;;;;;;;7.67;6.87;;;7.30;99.90;;;;;;6287413;22;20658;-92
2022/02/11 06:24:15;;;;;;;8.20;7.40;;;7.30;99.90;;;;;;6283015;22;20167;-91
2022/02/11 06:26:46;;;;;;;7.23;6.53;;;7.30;99.90;;;;;;6264091;22;20184;-94
2022/02/11 06:29:18;;;;;;;7.63;6.80;;;7.30;99.90;;;;;;6285542;22;20217;-93
2022/02/11 06:31:52;;;;;;;12.13;7.30;;;7.30;99.90;;;;;;6286705;22;20244;-94
2022/02/11 06:34:23;;;;;;;5.83;5.30;;;7.30;99.90;;;;;;6285977;22;20246;-93
2022/02/11 06:36:55;;;;;;;6.83;6.13;;;7.30;99.90;;;;;;6298910;22;20167;-93
2022/02/11 06:39:26;;;;;;;6.00;5.47;;;7.30;99.90;;;;;;6304230;22;20206;-94
2022/02/11 06:41:58;;;;;;;6.27;5.67;;;7.30;99.90;;;;;;6301776;22;20266;-93
2022/02/11 06:44:29;;;;;;;6.27;5.67;;;7.30;99.90;;;;;;6289490;22;20163;-93
2022/02/11 06:47:02;;;;;;;6.20;5.60;;;7.30;99.90;;;;;;6289946;22;20622;-93
2022/02/11 06:49:34;;;;;;;7.30;6.60;;;7.40;99.90;;;;;;6287517;22;20199;-93
2022/02/11 06:52:05;;;;;;;6.23;5.63;;;7.30;99.90;;;;;;6287738;22;20167;-94
2022/02/11 06:54:37;;;;;;;7.17;5.17;;;7.30;99.90;;;;;;6287853;22;20177;-93
2022/02/11 06:57:14;;;;;;;5.70;5.20;;;7.30;99.90;;;;;;6287371;22;20199;-94
2022/02/11 06:59:45;;;;;;;7.40;6.07;;;7.30;99.90;;;;;;6285276;22;20187;-93
2022/02/11 07:02:21;;;;;;;6.63;6.03;;;7.30;99.90;;;;;;6284189;22;20182;-93
2022/02/11 07:04:53;;;;;;;6.03;5.43;;;7.40;99.90;;;;;;6284282;22;20171;-93
2022/02/11 07:07:24;;;;;;;6.73;6.03;;;7.30;99.90;;;;;;6288108;22;20163;-93
2022/02/11 07:09:55;;;;;;;6.40;5.70;;;7.30;99.90;;;;;;6264236;22;20192;-94
2022/02/11 07:12:26;;;;;;;6.13;5.53;;;7.30;99.90;;;;;;6292327;22;20186;-93
2022/02/11 07:14:57;;;;;;;6.60;6.00;;;7.30;99.90;;;;;;6292654;22;20170;-93
2022/02/11 07:17:32;;;;;;;7.10;6.40;;;7.10;99.90;;;;;;6292346;22;20179;-94
2022/02/11 07:20:05;;;;;;;7.80;7.00;;;7.00;99.90;;;;;;6292604;22;20166;-94
2022/02/11 07:22:37;;;;;;;7.97;7.13;;;6.90;99.90;;;;;;6285785;22;20175;-94
2022/02/11 07:25:10;;;;;;;8.00;7.20;;;6.80;99.90;;;;;;6283194;22;20204;-93
2022/02/11 07:27:41;;;;;;;8.50;7.60;;;6.80;99.90;;;;;;6283137;22;20171;-94
2022/02/11 07:30:31;;;;;;;8.53;7.10;;;6.70;99.90;;;;;;6295181;22;20195;-94
2022/02/11 07:33:04;;;;;;;8.03;7.23;;;6.70;99.90;;;;;;6291512;22;20167;-93
2022/02/11 07:35:34;;;;;;;12.10;7.73;;;6.70;99.90;;;;;;6292069;22;20175;-94
2022/02/11 07:38:05;;;;;;;9.17;8.10;;;6.70;99.90;;;;;;6290624;22;20168;-91
2022/02/11 07:40:39;;;;;;;8.90;8.00;;;6.70;99.90;;;;;;6289026;22;20520;-94
2022/02/11 07:43:10;;;;;;;9.43;8.40;;;6.70;99.90;;;;;;6284464;22;20195;-93
2022/02/11 07:46:01;;;;;;;10.07;8.60;;;6.70;99.90;;;;;;6288390;22;20193;-93
2022/02/11 07:48:34;;;;;;;9.17;8.27;;;6.80;99.90;;;;;;6289502;22;20167;-89
2022/02/11 07:51:05;;;;;;;8.40;7.43;;;6.80;99.90;;;;;;6283493;22;20187;-93
2022/02/11 07:53:45;;;;;;;7.93;6.83;;;6.90;99.90;;;;;;6282529;22;20206;-94
2022/02/11 07:56:17;;;;;;;7.07;6.40;;;7.00;99.90;;;;;;6282223;22;20610;-93
2022/02/11 07:58:48;;;;;;;6.20;5.60;;;7.00;99.90;;;;;;6281821;22;20234;-94
2022/02/11 08:01:20;;;;;;;5.70;5.10;;;7.00;99.90;;;;;;6285350;22;20191;-94
2022/02/11 08:03:53;;;;;;;5.27;4.77;;;7.00;99.90;;;;;;6282828;22;20626;-94
2022/02/11 08:06:24;;;;;;;5.33;4.83;;;7.00;99.90;;;;;;6258406;22;20172;-93
2022/02/11 08:08:57;;;;;;;6.13;5.27;;;7.10;99.90;;;;;;6281583;22;20563;-93
2022/02/11 08:11:28;;;;;;;6.17;4.93;;;7.10;99.90;;;;;;6298277;22;20235;-90
2022/02/11 08:13:59;;;;;;;5.50;4.97;;;7.20;99.90;;;;;;6296487;22;20172;-93
2022/02/11 08:16:33;;;;;;;6.50;5.03;;;7.20;99.90;;;;;;6292473;22;20192;-94
2022/02/11 08:19:06;;;;;;;6.53;5.40;;;7.20;99.90;;;;;;6296549;22;20205;-93
2022/02/11 08:21:38;;;;;;;6.30;5.43;;;7.20;99.90;;;;;;6295904;22;20163;-94
2022/02/11 08:24:10;;;;;;;5.50;5.00;;;7.20;99.90;;;;;;6299553;22;20194;-92
2022/02/11 08:26:41;;;;;;;6.00;5.47;;;7.20;99.90;;;;;;6296890;22;20186;-95
2022/02/11 08:29:14;;;;;;;5.50;4.80;;;7.20;99.90;;;;;;6296555;22;20170;-93
2022/02/11 08:31:46;;;;;;;5.07;4.57;;;7.20;99.90;;;;;;6291307;22;20219;-93
2022/02/11 08:34:20;;;;;;;4.97;4.40;;;7.30;99.90;;;;;;6296590;22;20167;-92
2022/02/11 08:36:51;;;;;;;5.33;4.83;;;7.30;99.90;;;;;;6293736;22;20166;-94
2022/02/11 08:39:22;;;;;;;5.40;4.63;;;7.30;99.90;;;;;;6296850;22;20205;-93
2022/02/11 08:41:54;;;;;;;5.53;4.53;;;7.30;99.90;;;;;;6297720;22;20171;-93
2022/02/11 08:44:24;;;;;;;6.13;4.77;;;7.20;99.90;;;;;;6290334;22;20254;-93
2022/02/11 08:46:56;;;;;;;5.80;4.77;;;7.20;99.90;;;;;;6290377;22;20286;-93
2022/02/11 08:49:29;;;;;;;5.40;4.90;;;7.20;99.90;;;;;;6293480;22;20152;-93
2022/02/11 08:52:04;;;;;;;7.33;4.73;;;7.30;99.90;;;;;;6303223;22;20250;-93
2022/02/11 08:54:35;;;;;;;5.00;4.50;;;7.30;99.90;;;;;;6300853;22;20159;-95
2022/02/11 08:57:06;;;;;;;5.40;4.33;;;7.20;99.90;;;;;;6284375;22;20617;-94
2022/02/11 08:59:39;;;;;;;5.03;4.57;;;7.20;99.90;;;;;;6280668;22;20211;-94
2022/02/11 09:02:11;;;;;;;5.30;4.80;;;7.20;99.90;;;;;;6281062;22;20198;-93
2022/02/11 09:04:44;;;;;;;5.30;4.80;;;7.20;99.90;;;;;;6281218;22;20171;-96
2022/02/11 09:07:16;;;;;;;5.17;4.67;;;7.20;99.90;;;;;;6282873;22;20189;-94
2022/02/11 09:09:47;;;;;;;5.50;5.00;;;7.20;99.90;;;;;;6282670;22;20198;-93
2022/02/11 09:12:19;;;;;;;5.70;5.10;;;7.20;99.90;;;;;;6284045;22;20254;-94
2022/02/11 09:14:49;;;;;;;5.13;4.63;;;7.20;99.90;;;;;;6281696;22;20171;-93
2022/02/11 09:17:21;;;;;;;5.43;4.93;;;7.20;99.90;;;;;;6279783;22;20177;-93
2022/02/11 09:19:56;;;;;;;6.63;5.03;;;7.20;99.90;;;;;;6257072;22;20167;-94
2022/02/11 09:22:30;;;;;;;6.43;5.20;;;7.30;99.90;;;;;;6282762;22;20171;-92
2022/02/11 09:25:01;;;;;;;7.00;5.40;;;7.20;99.90;;;;;;6283043;22;20168;-93
2022/02/11 09:27:32;;;;;;;5.70;4.90;;;7.20;99.90;;;;;;6285489;22;20163;-93
2022/02/11 09:30:03;;;;;;;5.97;5.37;;;7.20;99.90;;;;;;6284948;22;20167;-93
2022/02/11 09:32:35;;;;;;;6.27;5.33;;;7.20;99.90;;;;;;6288141;22;20167;-94
2022/02/11 09:35:09;;;;;;;6.77;5.40;;;7.20;99.90;;;;;;6293468;22;20186;-92
2022/02/11 09:37:40;;;;;;;7.07;5.43;;;7.20;99.90;;;;;;6286005;22;20207;-93
2022/02/11 09:40:14;;;;;;;6.70;5.40;;;7.20;99.90;;;;;;6286503;22;20172;-94
2022/02/11 09:42:45;;;;;;;6.43;5.73;;;7.10;99.90;;;;;;6296132;22;20182;-94
2022/02/11 09:45:18;;;;;;;5.87;5.20;;;7.20;99.90;;;;;;6300339;22;20177;-92
2022/02/11 09:47:50;;;;;;;9.37;5.70;;;7.10;99.90;;;;;;6289724;22;20195;-94
2022/02/11 09:50:24;;;;;;;6.73;5.97;;;7.10;99.90;;;;;;6290221;22;20545;-94
2022/02/11 09:52:55;;;;;;;7.00;6.30;;;7.10;99.90;;;;;;6288562;22;20496;-93
2022/02/11 09:55:35;;;;;;;5.60;5.00;;;7.10;99.90;;;;;;6284489;22;20186;-94
2022/02/11 09:58:10;;;;;;;7.00;6.27;;;7.20;99.90;;;;;;6282688;22;20173;-94
2022/02/11 10:00:43;;;;;;;6.27;5.63;;;7.10;99.90;;;;;;6295478;22;20187;-95
2022/02/11 10:03:24;;;;;;;7.17;5.23;;;7.10;99.90;;;;;;6293862;22;20214;-94
2022/02/11 10:06:00;;;;;;;6.30;5.70;;;7.10;99.90;;;;;;6283915;22;20171;-94
2022/02/11 10:08:34;;;;;;;6.17;5.60;;;7.10;99.90;;;;;;6280562;22;20182;-94
2022/02/11 10:11:08;;;;;;;7.40;5.80;;;7.10;99.90;;;;;;6281085;22;20191;-94
2022/02/11 10:13:41;;;;;;;6.53;5.83;;;7.10;99.90;;;;;;6281481;22;20180;-94
2022/02/11 10:16:16;;;;;;;6.77;6.07;;;7.10;99.90;;;;;;6280560;22;20167;-94
2022/02/11 10:18:50;;;;;;;8.00;6.07;;;7.10;99.90;;;;;;6280070;22;20167;-94
2022/02/11 10:21:25;;;;;;;7.90;7.10;;;7.20;99.90;;;;;;6281320;22;20178;-93
2022/02/11 10:23:59;;;;;;;7.27;6.50;;;7.10;99.90;;;;;;6282171;22;20250;-93
2022/02/11 10:26:29;;;;;;;7.90;6.80;;;7.10;99.90;;;;;;6282562;22;20167;-94
2022/02/11 10:29:03;;;;;;;8.07;7.27;;;7.10;99.90;;;;;;6281727;22;20171;-94
2022/02/11 10:31:35;;;;;;;8.33;7.43;;;7.10;99.90;;;;;;6282045;22;20199;-95
2022/02/11 10:34:07;;;;;;;8.57;7.50;;;7.10;99.90;;;;;;6281846;22;20641;-94
2022/02/11 10:36:44;;;;;;;9.27;7.70;;;7.10;99.90;;;;;;6280778;22;20175;-94
2022/02/11 10:39:21;;;;;;;9.50;7.53;;;7.10;99.90;;;;;;6283510;22;20175;-94
2022/02/11 10:41:54;;;;;;;9.30;7.53;;;7.10;99.90;;;;;;6289360;22;20163;-95
2022/02/11 10:44:27;;;;;;;8.80;7.87;;;7.10;99.90;;;;;;6283001;22;20178;-95
2022/02/11 10:47:04;;;;;;;9.43;7.50;;;7.00;99.90;;;;;;6286439;22;20556;-94
2022/02/11 10:49:36;;;;;;;10.10;8.63;;;7.00;99.90;;;;;;6284596;22;20178;-95
2022/02/11 10:52:15;;;;;;;10.37;7.73;;;7.00;99.90;;;;;;6283218;22;20193;-94
2022/02/11 10:54:49;;;;;;;9.13;8.23;;;7.00;99.90;;;;;;6263026;22;20176;-94
2022/02/11 10:57:21;;;;;;;10.03;8.57;;;7.00;99.90;;;;;;6300795;22;20202;-93
2022/02/11 10:59:52;;;;;;;10.63;8.57;;;7.10;99.90;;;;;;6301390;22;20179;-93
2022/02/11 11:02:25;;;;;;;9.60;8.00;;;7.10;99.90;;;;;;6302004;22;20155;-94
2022/02/11 11:04:58;;;;;;;10.03;8.40;;;7.10;99.90;;;;;;6301117;22;20174;-93
2022/02/11 11:07:32;;;;;;;9.90;8.43;;;7.10;99.90;;;;;;6299660;22;20164;-93
2022/02/11 11:10:20;;;;;;;9.50;8.50;;;7.10;99.90;;;;;;6301182;22;20161;-93
2022/02/11 11:12:56;;;;;;;10.17;8.17;;;7.10;99.90;;;;;;6299607;22;20199;-93
2022/02/11 11:15:29;;;;;;;11.50;8.20;;;7.00;99.90;;;;;;6297310;22;20175;-94
2022/02/11 11:18:05;;;;;;;8.27;7.33;;;7.00;99.90;;;;;;6266401;22;20175;-93
2022/02/11 11:20:36;;;;;;;9.67;7.70;;;7.10;99.90;;;;;;6289924;22;20232;-94
2022/02/11 11:23:20;;;;;;;8.33;7.43;;;7.10;99.90;;;;;;6287601;22;20179;-90
2022/02/11 11:26:02;;;;;;;9.60;7.50;;;7.10;99.90;;;;;;6283909;22;20167;-93
2022/02/11 11:28:48;;;;;;;9.33;7.57;;;7.10;99.90;;;;;;6281484;22;20217;-94
2022/02/11 11:31:25;;;;;;;8.67;7.33;;;7.20;99.90;;;;;;6282154;22;20219;-93
2022/02/11 11:34:25;;;;;;;7.97;6.83;;;7.10;99.90;;;;;;6283387;22;20171;-93
2022/02/11 11:36:59;;;;;;;8.87;7.60;;;7.10;99.90;;;;;;6282211;22;20171;-95
2022/02/11 11:39:31;;;;;;;8.93;7.40;;;7.10;99.90;;;;;;6283599;22;20202;-94
2022/02/11 11:42:11;;;;;;;9.37;7.70;;;7.10;99.90;;;;;;6282565;22;20531;-93
2022/02/11 11:44:52;;;;;;;14.33;7.80;;;7.10;99.90;;;;;;6286416;22;20182;-93
2022/02/11 11:47:33;;;;;;;9.13;8.13;;;7.10;99.90;;;;;;6281680;22;20177;-94
2022/02/11 11:50:08;;;;;;;8.40;7.27;;;7.20;99.90;;;;;;6282462;22;20168;-93
2022/02/11 11:52:43;;;;;;;7.80;7.00;;;7.20;99.90;;;;;;6282706;22;20524;-93
2022/02/11 11:55:22;;;;;;;7.73;6.80;;;7.20;99.90;;;;;;6282517;22;20170;-95
2022/02/11 11:57:54;;;;;;;9.03;7.47;;;7.20;99.90;;;;;;6285571;22;20247;-93
2022/02/11 12:00:35;;;;;;;8.87;7.20;;;7.20;99.90;;;;;;6282740;22;20179;-93
2022/02/11 12:03:11;;;;;;;9.50;7.20;;;7.20;99.90;;;;;;6282974;22;20167;-94
2022/02/11 12:05:45;;;;;;;8.00;7.13;;;7.20;99.90;;;;;;6282820;22;20477;-93
2022/02/11 12:08:18;;;;;;;9.10;7.70;;;7.20;99.90;;;;;;6283459;22;20171;-93
2022/02/11 12:10:51;;;;;;;9.97;8.27;;;7.10;99.90;;;;;;6283522;22;20191;-93
2022/02/11 12:13:22;;;;;;;11.43;8.50;;;7.20;99.90;;;;;;6286283;22;20580;-94
2022/02/11 12:15:55;;;;;;;10.23;8.90;;;7.20;99.90;;;;;;6282170;22;20606;-94
2022/02/11 12:18:27;;;;;;;10.47;9.03;;;7.10;99.90;;;;;;6282039;22;20269;-94
2022/02/11 12:20:59;;;;;;;10.97;8.20;;;7.10;99.90;;;;;;6282391;22;20209;-94
2022/02/11 12:29:10;;;;;;;14.50;9.80;;;7.10;99.90;;;;;;6263564;22;20167;-92
2022/02/11 12:31:41;;;;;;;11.00;9.07;;;7.10;99.90;;;;;;6284416;22;20170;-92
2022/02/11 12:34:17;;;;;;;12.53;9.23;;;7.20;99.90;;;;;;6281821;22;20163;-93
2022/02/11 12:36:48;;;;;;;11.83;9.73;;;7.10;99.90;;;;;;6282621;22;20179;-94
2022/02/11 12:39:21;;;;;;;12.63;10.07;;;7.10;99.90;;;;;;6255514;22;20199;-94
2022/02/11 12:41:56;;;;;;;11.83;9.20;;;7.10;99.90;;;;;;6282185;22;20229;-94
2022/02/11 12:44:28;;;;;;;12.13;9.10;;;7.10;99.90;;;;;;6282540;22;20659;-94
2022/02/11 12:47:02;;;;;;;10.97;8.83;;;7.20;99.90;;;;;;6281143;22;20194;-94
2022/02/11 12:49:33;;;;;;;12.40;9.40;;;7.20;99.90;;;;;;6282236;22;20167;-94
2022/02/11 12:52:05;;;;;;;11.60;9.00;;;7.10;99.90;;;;;;6280461;22;20217;-94
2022/02/11 12:54:36;;;;;;;11.80;8.93;;;7.20;99.90;;;;;;6282864;22;20602;-94
2022/02/11 12:57:16;;;;;;;13.70;10.00;;;7.10;99.90;;;;;;6281142;22;20618;-93
2022/02/11 12:59:53;;;;;;;12.17;9.60;;;7.20;99.90;;;;;;6281929;22;20680;-93
2022/02/11 13:02:28;;;;;;;10.73;8.53;;;7.20;99.90;;;;;;6282622;22;20167;-93
2022/02/11 13:05:17;;;;;;;13.23;10.10;;;7.20;99.90;;;;;;6283727;22;20171;-94
2022/02/11 13:07:50;;;;;;;13.30;10.40;;;7.20;99.90;;;;;;6254651;22;20195;-94
2022/02/11 13:10:22;;;;;;;16.13;10.97;;;7.20;99.90;;;;;;6280872;22;20175;-93
2022/02/11 13:12:58;;;;;;;16.80;12.13;;;7.20;99.90;;;;;;6283057;22;20191;-94
2022/02/11 13:15:32;;;;;;;15.40;12.20;;;7.20;99.90;;;;;;6294340;22;20174;-93
2022/02/11 13:18:10;;;;;;;17.27;11.53;;;7.10;99.90;;;;;;6302422;22;20166;-94
2022/02/11 13:20:47;;;;;;;17.30;13.67;;;7.10;99.90;;;;;;6301288;22;20222;-94
2022/02/11 13:23:22;;;;;;;18.43;13.23;;;7.10;99.90;;;;;;6283952;22;20170;-94
2022/02/11 13:26:12;;;;;;;20.83;13.10;;;7.20;99.90;;;;;;6317373;22;20190;-92
2022/02/11 13:28:49;;;;;;;18.13;13.17;;;7.20;99.90;;;;;;6311671;22;20607;-94
2022/02/11 13:31:20;;;;;;;17.43;12.30;;;7.10;99.90;;;;;;6312280;22;20260;-93
2022/02/11 13:34:04;;;;;;;15.07;11.13;;;7.10;99.90;;;;;;6312814;22;20220;-94
2022/02/11 13:36:36;;;;;;;14.70;11.13;;;7.10;99.90;;;;;;6312103;22;20166;-94
2022/02/11 13:39:07;;;;;;;12.83;9.67;;;7.00;99.90;;;;;;6312215;22;20192;-93
2022/02/11 13:41:39;;;;;;;14.53;10.07;;;7.10;99.90;;;;;;6286348;22;20217;-94
2022/02/11 13:44:15;;;;;;;13.67;9.77;;;7.10;99.90;;;;;;6312619;22;20178;-93
2022/02/11 13:47:00;;;;;;;12.77;9.87;;;7.10;99.90;;;;;;6311324;22;20710;-94
2022/02/11 13:49:39;;;;;;;13.77;10.23;;;7.10;99.90;;;;;;6312798;22;20200;-94
2022/02/11 13:55:00;;;;;;;12.73;9.50;;;7.10;99.90;;;;;;6297930;22;20167;-93
2022/02/11 13:57:31;;;;;;;12.77;9.27;;;7.10;99.90;;;;;;6320829;22;20490;-93
2022/02/11 14:00:31;;;;;;;14.33;10.07;;;7.10;99.90;;;;;;6323993;22;20177;-93
2022/02/11 14:03:04;;;;;;;12.27;9.37;;;7.10;99.90;;;;;;6322918;22;20166;-94
2022/02/11 14:05:44;;;;;;;11.53;9.10;;;7.00;99.90;;;;;;6322009;22;20166;-94
2022/02/11 14:08:17;;;;;;;13.70;9.10;;;7.00;99.90;;;;;;6322375;22;20170;-94
2022/02/11 14:10:49;;;;;;;12.30;9.43;;;7.10;99.90;;;;;;6313229;22;20230;-94
2022/02/11 14:13:24;;;;;;;12.10;8.93;;;7.00;99.90;;;;;;6312752;22;20636;-93
2022/02/11 14:15:58;;;;;;;14.27;9.93;;;7.10;99.90;;;;;;6315882;22;20166;-92
2022/02/11 14:18:28;;;;;;;12.23;9.50;;;7.00;99.90;;;;;;6314358;22;20166;-94
2022/02/11 14:21:00;;;;;;;12.70;9.33;;;7.10;99.90;;;;;;6315533;22;20171;-94
2022/02/11 14:23:33;;;;;;;11.83;8.77;;;7.10;99.90;;;;;;6312926;22;20174;-93
2022/02/11 14:26:04;;;;;;;12.70;9.00;;;7.10;99.90;;;;;;6312773;22;20281;-93
2022/02/11 14:28:35;;;;;;;16.80;9.93;;;7.10;99.90;;;;;;6312211;22;20632;-94
2022/02/11 14:31:09;;;;;;;15.03;10.20;;;7.10;99.90;;;;;;6289576;22;20167;-93
2022/02/11 14:33:41;;;;;;;13.80;10.43;;;7.10;99.90;;;;;;6312750;22;20200;-94
2022/02/11 14:36:12;;;;;;;16.83;11.03;;;7.10;99.90;;;;;;6313380;22;20216;-93
2022/02/11 14:38:43;;;;;;;13.93;10.77;;;7.10;99.90;;;;;;6326332;22;20185;-94
2022/02/11 14:44:05;;;;;;;16.23;11.00;;;7.00;99.90;;;;;;6324685;22;20178;-93
2022/02/11 14:46:38;;;;;;;14.77;10.17;;;7.10;99.90;;;;;;6320620;22;20213;-93
2022/02/11 14:49:10;;;;;;;16.20;11.00;;;7.10;99.90;;;;;;6331235;22;20174;-93
2022/02/11 14:51:43;;;;;;;14.77;10.53;;;7.10;99.90;;;;;;6316151;22;20230;-91
2022/02/11 14:54:14;;;;;;;17.33;11.07;;;7.10;99.90;;;;;;6314954;22;20226;-93
2022/02/11 14:56:47;;;;;;;16.77;11.23;;;7.20;99.90;;;;;;6288887;22;20190;-92
2022/02/11 14:59:18;;;;;;;17.03;11.17;;;7.20;99.90;;;;;;6316502;22;20167;-94
2022/02/11 15:01:53;;;;;;;17.57;11.73;;;7.10;99.90;;;;;;6288826;22;20498;-93
2022/02/11 15:04:24;;;;;;;19.03;11.77;;;7.00;99.90;;;;;;6315484;22;20178;-93
2022/02/11 15:07:01;;;;;;;18.07;11.83;;;7.00;99.90;;;;;;6314877;22;20232;-94
2022/02/11 15:09:33;;;;;;;20.60;12.87;;;7.00;99.90;;;;;;6316546;22;20169;-94
2022/02/11 15:12:04;;;;;;;21.90;13.57;;;7.10;99.90;;;;;;6317516;22;20219;-93
2022/02/11 15:14:40;;;;;;;19.50;11.93;;;7.10;99.90;;;;;;6320788;22;20193;-93
2022/02/11 15:17:16;;;;;;;19.47;12.83;;;7.10;99.90;;;;;;6317019;22;20533;-93
2022/02/11 15:19:47;;;;;;;19.70;13.07;;;7.10;99.90;;;;;;6329365;22;20188;-94
2022/02/11 15:22:19;;;;;;;19.27;12.53;;;7.10;99.90;;;;;;6334702;22;20181;-92
2022/02/11 15:24:50;;;;;;;18.73;12.93;;;7.00;99.90;;;;;;6335133;22;20182;-92
2022/02/11 15:27:21;;;;;;;21.13;12.93;;;7.00;99.90;;;;;;6335514;22;20172;-92
2022/02/11 15:29:53;;;;;;;18.43;12.37;;;7.00;99.90;;;;;;6336349;22;20169;-93
2022/02/11 15:32:27;;;;;;;19.77;13.50;;;7.10;99.90;;;;;;6336157;22;20174;-93
2022/02/11 15:34:58;;;;;;;18.93;14.03;;;7.10;99.90;;;;;;6335934;22;20209;-92
2022/02/11 15:37:30;;;;;;;18.10;12.80;;;7.10;99.90;;;;;;6335345;22;20185;-94
2022/02/11 15:40:01;;;;;;;19.57;13.43;;;7.10;99.90;;;;;;6334916;22;20228;-92
2022/02/11 15:42:32;;;;;;;19.73;12.77;;;7.10;99.90;;;;;;6335581;22;20186;-93
2022/02/11 15:45:04;;;;;;;17.97;12.77;;;7.10;99.90;;;;;;6335513;22;20168;-93
2022/02/11 15:47:37;;;;;;;19.17;12.33;;;7.10;99.90;;;;;;6333311;22;20169;-94
2022/02/11 15:50:09;;;;;;;16.03;10.73;;;7.10;99.90;;;;;;6333513;22;20609;-91
2022/02/11 15:52:40;;;;;;;15.87;11.00;;;7.10;99.90;;;;;;6331405;22;20174;-93
2022/02/11 15:55:12;;;;;;;16.77;11.70;;;7.10;99.90;;;;;;6325949;22;20194;-91
2022/02/11 15:57:43;;;;;;;16.57;12.03;;;7.10;99.90;;;;;;6323996;22;20180;-92
2022/02/11 16:00:17;;;;;;;18.93;11.87;;;7.10;99.90;;;;;;6324323;22;20166;-91
2022/02/11 16:02:50;;;;;;;17.47;12.30;;;7.10;99.90;;;;;;6322437;22;20167;-93
2022/02/11 16:05:21;;;;;;;15.50;11.77;;;7.20;99.90;;;;;;6320985;22;20163;-92
2022/02/11 16:07:54;;;;;;;18.87;11.97;;;7.10;99.90;;;;;;6326830;22;20169;-93
2022/02/11 16:10:28;;;;;;;18.73;11.53;;;7.10;99.90;;;;;;6317796;22;20196;-94
2022/02/11 16:12:59;;;;;;;19.23;13.47;;;7.20;99.90;;;;;;6317676;22;20174;-94
2022/02/11 16:15:30;;;;;;;15.07;11.33;;;7.10;99.90;;;;;;6319676;22;20225;-95
2022/02/11 16:18:04;;;;;;;15.77;11.20;;;7.20;99.90;;;;;;6321487;22;20193;-91
2022/02/11 16:20:37;;;;;;;14.53;10.13;;;7.30;99.90;;;;;;6318390;22;20170;-92
2022/02/11 16:23:10;;;;;;;16.13;11.30;;;7.30;99.90;;;;;;6317470;22;20174;-89
2022/02/11 16:25:42;;;;;;;15.43;10.57;;;7.30;99.90;;;;;;6316718;22;20225;-90
2022/02/11 16:28:15;;;;;;;14.83;10.60;;;7.20;99.90;;;;;;6319109;22;20170;-92
2022/02/11 16:30:47;;;;;;;17.57;11.00;;;7.30;99.90;;;;;;6315285;22;20184;-91
2022/02/11 16:33:22;;;;;;;19.47;11.60;;;7.20;99.90;;;;;;6315851;22;20170;-91
2022/02/11 16:35:59;;;;;;;12.57;9.43;;;7.20;99.90;;;;;;6316146;22;20285;-89
2022/02/11 16:38:32;;;;;;;13.90;9.70;;;7.20;99.90;;;;;;6320184;22;20268;-92
2022/02/11 16:41:03;;;;;;;12.00;8.73;;;7.20;99.90;;;;;;6316269;22;20185;-92
2022/02/11 16:43:37;;;;;;;14.27;10.13;;;7.20;99.90;;;;;;6318146;22;20166;-91
2022/02/11 16:46:10;;;;;;;13.73;9.50;;;7.20;99.90;;;;;;6327740;22;20189;-90
2022/02/11 16:48:44;;;;;;;12.87;9.13;;;7.20;99.90;;;;;;6330306;22;20177;-91
2022/02/11 16:51:16;;;;;;;12.93;9.43;;;7.30;99.90;;;;;;6333447;22;20170;-91
2022/02/11 16:53:47;;;;;;;14.10;10.07;;;7.20;99.90;;;;;;6332676;22;20183;-91
2022/02/11 16:56:19;;;;;;;13.93;9.43;;;7.20;99.90;;;;;;6333451;22;20216;-92
2022/02/11 16:58:51;;;;;;;12.20;9.73;;;7.20;99.90;;;;;;6306106;22;20174;-90
2022/02/11 17:01:23;;;;;;;12.90;9.37;;;7.20;99.90;;;;;;6333108;22;20162;-92
2022/02/11 17:03:57;;;;;;;13.80;9.33;;;7.30;99.90;;;;;;6330121;22;20171;-92
2022/02/11 17:06:28;;;;;;;14.53;9.77;;;7.30;99.90;;;;;;6329951;22;20158;-92